Time;durP1;ratioP1;P1;durP2;ratioP2;P2;SDS_P1;SDS_P2;PMS_P1;PMS_P2;Temp;Humidity;BMP_temperature;BMP_pressure;BME280_temperature;BME280_humidity;BME280_pressure;Samples;Min_cycle;Max_cycle;Signal;HPM_P1;HPM_P2
2022/03/23 00:00:39;;;;;;;27.93;17.87;;;5.80;99.90;;;;;;5023584;28;20450;-64
2022/03/23 00:03:05;;;;;;;27.27;18.60;;;5.80;99.90;;;;;;5014370;28;20457;-61
2022/03/23 00:05:32;;;;;;;25.77;16.43;;;5.90;99.90;;;;;;5023682;28;20508;-61
2022/03/23 00:07:58;;;;;;;28.77;16.67;;;5.80;99.90;;;;;;5034408;28;20414;-62
2022/03/23 00:10:24;;;;;;;26.23;17.17;;;5.80;99.90;;;;;;5024433;28;20839;-62
2022/03/23 00:12:51;;;;;;;25.63;17.57;;;5.80;99.90;;;;;;5014297;28;20216;-61
2022/03/23 00:15:17;;;;;;;27.33;19.03;;;5.80;99.90;;;;;;5020125;28;20482;-64
2022/03/23 00:17:43;;;;;;;27.70;18.90;;;5.80;99.90;;;;;;5032368;28;20450;-64
2022/03/23 00:20:09;;;;;;;26.90;17.23;;;5.80;99.90;;;;;;5028925;28;20458;-63
2022/03/23 00:22:35;;;;;;;35.00;18.50;;;5.80;99.90;;;;;;5014330;28;20188;-61
2022/03/23 00:25:01;;;;;;;25.90;18.77;;;5.80;99.90;;;;;;5015394;28;21072;-63
2022/03/23 00:27:26;;;;;;;28.07;18.90;;;5.70;99.90;;;;;;5014543;28;20259;-62
2022/03/23 00:29:52;;;;;;;30.33;18.50;;;5.70;99.90;;;;;;5013499;28;20259;-60
2022/03/23 00:32:17;;;;;;;28.20;19.13;;;5.70;99.90;;;;;;5013238;28;20287;-61
2022/03/23 00:34:43;;;;;;;27.10;16.50;;;5.70;99.90;;;;;;5021469;28;20245;-60
2022/03/23 00:37:09;;;;;;;29.43;16.77;;;5.70;99.90;;;;;;5013916;28;20648;-61
2022/03/23 00:39:35;;;;;;;28.03;15.50;;;5.70;99.90;;;;;;5018623;28;20258;-63
2022/03/23 00:42:00;;;;;;;30.30;16.37;;;5.60;99.90;;;;;;5033887;28;20543;-61
2022/03/23 00:44:26;;;;;;;23.33;16.30;;;5.60;99.90;;;;;;5028123;28;20188;-61
2022/03/23 00:46:52;;;;;;;34.20;17.00;;;5.50;99.90;;;;;;5013998;28;20247;-64
2022/03/23 00:49:18;;;;;;;24.87;15.50;;;5.50;99.90;;;;;;5016568;28;20715;-61
2022/03/23 00:51:43;;;;;;;23.43;16.20;;;5.40;99.90;;;;;;5031763;28;20438;-61
2022/03/23 00:54:09;;;;;;;28.67;16.60;;;5.30;99.90;;;;;;5026411;28;20219;-62
2022/03/23 00:56:39;;;;;;;26.03;16.20;;;5.20;99.90;;;;;;5013067;28;20164;-61
2022/03/23 00:59:07;;;;;;;20.80;15.73;;;5.20;99.90;;;;;;5017192;28;20492;-61
2022/03/23 01:01:32;;;;;;;26.10;16.90;;;5.20;99.90;;;;;;5033506;28;20476;-61
2022/03/23 01:03:58;;;;;;;30.67;17.97;;;5.10;99.90;;;;;;5031385;28;20836;-60
2022/03/23 01:06:23;;;;;;;29.93;18.10;;;5.10;99.90;;;;;;5022249;28;20179;-65
2022/03/23 01:08:49;;;;;;;24.10;16.90;;;5.00;99.90;;;;;;5020082;28;20187;-61
2022/03/23 01:11:15;;;;;;;29.93;17.50;;;5.00;99.90;;;;;;5012104;28;20237;-64
2022/03/23 01:13:41;;;;;;;24.80;16.23;;;5.00;99.90;;;;;;5013823;28;20203;-63
2022/03/23 01:16:06;;;;;;;30.40;16.47;;;5.00;99.90;;;;;;5013886;28;20650;-64
2022/03/23 01:18:32;;;;;;;27.97;17.13;;;5.00;99.90;;;;;;5012610;28;20423;-64
2022/03/23 01:21:00;;;;;;;29.53;18.00;;;5.00;99.90;;;;;;5013101;28;20594;-61
2022/03/23 01:23:26;;;;;;;25.47;17.97;;;4.90;99.90;;;;;;5013705;28;20435;-65
2022/03/23 01:25:52;;;;;;;27.23;16.70;;;4.90;99.90;;;;;;5026980;28;20425;-64
2022/03/23 01:28:18;;;;;;;23.63;14.90;;;4.90;99.90;;;;;;5017557;28;20426;-60
2022/03/23 01:30:43;;;;;;;22.93;14.67;;;4.80;99.90;;;;;;5011690;28;20270;-61
2022/03/23 01:33:09;;;;;;;18.53;14.40;;;4.70;99.90;;;;;;5026481;28;20282;-66
2022/03/23 01:35:35;;;;;;;30.70;17.97;;;4.70;99.90;;;;;;5033226;28;20659;-61
2022/03/23 01:38:00;;;;;;;24.57;16.40;;;4.70;99.90;;;;;;5019750;28;20187;-63
2022/03/23 01:40:26;;;;;;;27.40;16.20;;;4.60;99.90;;;;;;5012721;28;20617;-61
2022/03/23 01:42:51;;;;;;;24.60;17.10;;;4.30;99.90;;;;;;5021883;28;20199;-65
2022/03/23 01:45:17;;;;;;;28.23;17.60;;;4.20;99.90;;;;;;5016820;28;20183;-60
2022/03/23 01:47:43;;;;;;;28.80;16.60;;;4.10;99.90;;;;;;5015076;28;20184;-65
2022/03/23 01:50:09;;;;;;;23.07;15.70;;;4.20;99.90;;;;;;5012639;28;20184;-65
2022/03/23 01:52:35;;;;;;;29.00;16.83;;;4.20;99.90;;;;;;5013451;28;20557;-60
2022/03/23 01:55:13;;;;;;;25.10;15.80;;;4.20;99.90;;;;;;5017172;28;20509;-62
2022/03/23 01:57:42;;;;;;;23.60;16.53;;;4.30;99.90;;;;;;5030500;28;20411;-65
2022/03/23 02:00:08;;;;;;;25.97;14.93;;;4.30;99.90;;;;;;5013427;28;20421;-60
2022/03/23 02:02:34;;;;;;;27.53;17.60;;;4.30;99.90;;;;;;5012900;28;20419;-64
2022/03/23 02:05:01;;;;;;;24.53;16.07;;;4.30;99.90;;;;;;5016067;28;20420;-64
2022/03/23 02:07:27;;;;;;;29.43;16.67;;;4.30;99.90;;;;;;5030618;28;20425;-61
2022/03/23 02:09:53;;;;;;;25.30;15.10;;;4.30;99.90;;;;;;5033707;28;20419;-61
2022/03/23 02:12:18;;;;;;;26.60;15.83;;;4.30;99.90;;;;;;5016495;28;20200;-61
2022/03/23 02:14:48;;;;;;;24.87;15.07;;;4.20;99.90;;;;;;5017810;28;20466;-62
2022/03/23 02:17:13;;;;;;;30.40;17.90;;;4.20;99.90;;;;;;5032083;28;20179;-65
2022/03/23 02:19:39;;;;;;;25.50;15.53;;;4.10;99.90;;;;;;5014309;28;20427;-66
2022/03/23 02:22:04;;;;;;;24.30;15.83;;;4.00;99.90;;;;;;5016241;28;20202;-65
2022/03/23 02:24:32;;;;;;;21.33;16.37;;;4.00;99.90;;;;;;5016578;28;20174;-60
2022/03/23 02:26:58;;;;;;;23.20;15.80;;;4.00;99.90;;;;;;5016404;28;20176;-64
2022/03/23 02:29:29;;;;;;;29.37;17.43;;;3.90;99.90;;;;;;5014639;28;20774;-61
2022/03/23 02:31:56;;;;;;;24.07;15.97;;;3.80;99.90;;;;;;5030492;28;20447;-60
2022/03/23 02:34:24;;;;;;;29.20;17.27;;;3.80;99.90;;;;;;5034635;28;20453;-60
2022/03/23 02:36:50;;;;;;;21.70;15.83;;;3.80;99.90;;;;;;5020990;28;20584;-65
2022/03/23 02:39:15;;;;;;;27.03;16.13;;;3.80;99.90;;;;;;5013885;28;20504;-64
2022/03/23 02:41:41;;;;;;;26.70;16.97;;;3.80;99.90;;;;;;5028185;28;20196;-64
2022/03/23 02:44:07;;;;;;;23.47;15.10;;;3.80;99.90;;;;;;5034342;28;20639;-61
2022/03/23 02:46:35;;;;;;;23.67;16.63;;;3.80;99.90;;;;;;5024195;28;20267;-61
2022/03/23 02:49:02;;;;;;;26.17;15.97;;;3.70;99.90;;;;;;5016407;28;20191;-61
2022/03/23 02:51:28;;;;;;;24.53;15.93;;;3.60;99.90;;;;;;5026351;28;20518;-67
2022/03/23 03:02:47;;;;;;;22.20;14.53;;;3.60;99.90;;;;;;5015572;28;20465;-63
2022/03/23 03:05:13;;;;;;;22.10;15.60;;;3.50;99.90;;;;;;5015525;28;20517;-60
2022/03/23 03:10:24;;;;;;;24.13;15.67;;;3.50;99.90;;;;;;5015943;28;20636;-60
2022/03/23 03:12:51;;;;;;;29.87;16.03;;;3.50;99.90;;;;;;5015175;28;20427;-62
2022/03/23 03:15:19;;;;;;;23.13;15.07;;;3.50;99.90;;;;;;5020661;28;21046;-63
2022/03/23 03:17:46;;;;;;;25.57;16.40;;;3.50;99.90;;;;;;5035248;28;20403;-63
2022/03/23 03:20:14;;;;;;;24.10;16.27;;;3.50;99.90;;;;;;5029264;28;20436;-61
2022/03/23 03:22:40;;;;;;;24.63;14.63;;;3.50;99.90;;;;;;5014738;28;20443;-61
2022/03/23 03:25:10;;;;;;;31.30;15.07;;;3.40;99.90;;;;;;5018209;28;20712;-60
2022/03/23 03:27:40;;;;;;;20.63;14.33;;;3.40;99.90;;;;;;5035096;28;20435;-64
2022/03/23 03:30:08;;;;;;;23.37;14.40;;;3.40;99.90;;;;;;5031679;28;20407;-61
2022/03/23 03:32:34;;;;;;;25.07;15.37;;;3.40;99.90;;;;;;5014880;28;20440;-61
2022/03/23 03:35:00;;;;;;;24.10;17.50;;;3.30;99.90;;;;;;5016007;28;20466;-61
2022/03/23 03:37:26;;;;;;;22.90;17.47;;;3.20;99.90;;;;;;5033952;28;20883;-60
2022/03/23 03:39:51;;;;;;;27.80;16.83;;;3.20;99.90;;;;;;5032065;28;20259;-63
2022/03/23 03:42:18;;;;;;;30.77;17.00;;;3.20;99.90;;;;;;5014101;28;20277;-64
2022/03/23 03:44:44;;;;;;;26.03;16.20;;;3.20;99.90;;;;;;5015120;28;20404;-60
2022/03/23 03:47:10;;;;;;;22.70;15.13;;;3.20;99.90;;;;;;5032253;28;20424;-61
2022/03/23 03:49:37;;;;;;;28.83;16.67;;;3.10;99.90;;;;;;5025589;28;20423;-65
2022/03/23 03:52:03;;;;;;;26.27;16.27;;;3.00;99.90;;;;;;5017231;28;20490;-61
2022/03/23 03:54:29;;;;;;;24.77;16.30;;;3.00;99.90;;;;;;5013690;28;20827;-61
2022/03/23 03:56:54;;;;;;;21.60;15.70;;;3.00;99.90;;;;;;5015906;28;20470;-65
2022/03/23 03:59:20;;;;;;;28.47;16.83;;;3.00;99.90;;;;;;5017758;28;20171;-61
2022/03/23 04:01:46;;;;;;;27.97;16.17;;;2.90;99.90;;;;;;5034620;28;20684;-61
2022/03/23 04:04:12;;;;;;;29.30;16.93;;;2.90;99.90;;;;;;5029657;28;20199;-64
2022/03/23 04:06:37;;;;;;;27.10;16.43;;;2.90;99.90;;;;;;5014525;28;20176;-61
2022/03/23 04:09:03;;;;;;;30.37;17.80;;;2.80;99.90;;;;;;5013694;28;20187;-64
2022/03/23 04:11:30;;;;;;;23.40;16.13;;;2.80;99.90;;;;;;5014633;28;20303;-65
2022/03/23 04:13:56;;;;;;;31.50;16.17;;;2.90;99.90;;;;;;5020861;28;20203;-65
2022/03/23 04:16:21;;;;;;;30.23;18.20;;;2.90;99.90;;;;;;5034026;28;20890;-62
2022/03/23 04:18:47;;;;;;;25.83;16.67;;;2.90;99.90;;;;;;5025495;28;20427;-61
2022/03/23 04:21:13;;;;;;;27.00;17.67;;;2.80;99.90;;;;;;5014401;28;20192;-65
2022/03/23 04:23:39;;;;;;;30.40;17.90;;;2.80;99.90;;;;;;5020303;28;20261;-65
2022/03/23 04:26:04;;;;;;;28.77;17.77;;;2.80;99.90;;;;;;5033701;28;20760;-61
2022/03/23 04:28:31;;;;;;;24.67;16.37;;;2.70;99.90;;;;;;5028575;28;20694;-68
2022/03/23 04:30:56;;;;;;;24.30;17.37;;;2.70;99.90;;;;;;5014522;28;20597;-64
2022/03/23 04:33:22;;;;;;;23.43;15.80;;;2.50;99.90;;;;;;5016310;28;20427;-61
2022/03/23 04:35:47;;;;;;;34.10;19.37;;;2.50;99.90;;;;;;5024312;28;20713;-64
2022/03/23 04:38:13;;;;;;;20.80;13.47;;;2.60;99.90;;;;;;5015174;28;20187;-68
2022/03/23 04:40:39;;;;;;;23.87;17.00;;;2.60;99.90;;;;;;5033107;28;20218;-64
2022/03/23 04:43:05;;;;;;;34.77;18.00;;;2.50;99.90;;;;;;5033883;28;20233;-63
2022/03/23 04:45:30;;;;;;;29.00;18.20;;;2.60;99.90;;;;;;5014311;28;20503;-67
2022/03/23 04:47:56;;;;;;;25.90;16.67;;;2.60;99.90;;;;;;5014729;28;20545;-66
2022/03/23 04:50:21;;;;;;;23.93;16.33;;;2.60;99.90;;;;;;5030211;28;20639;-68
2022/03/23 04:52:48;;;;;;;27.93;16.93;;;2.40;99.90;;;;;;5033607;28;20234;-63
2022/03/23 04:55:15;;;;;;;28.47;16.87;;;2.30;99.90;;;;;;5016551;28;20208;-66
2022/03/23 04:57:42;;;;;;;27.73;16.30;;;2.40;99.90;;;;;;5013861;28;20414;-65
2022/03/23 05:00:13;;;;;;;30.70;16.83;;;2.40;99.90;;;;;;5023122;28;20512;-62
2022/03/23 05:02:39;;;;;;;22.63;16.90;;;2.50;99.90;;;;;;5015679;28;20446;-63
2022/03/23 05:05:07;;;;;;;26.33;17.20;;;2.30;99.90;;;;;;5013023;28;20439;-65
2022/03/23 05:07:32;;;;;;;27.80;18.20;;;2.30;99.90;;;;;;5026083;28;20429;-64
2022/03/23 05:09:58;;;;;;;27.73;18.10;;;2.40;99.90;;;;;;5032672;28;20406;-68
2022/03/23 05:12:24;;;;;;;25.23;15.97;;;2.40;99.90;;;;;;5022403;28;20558;-63
2022/03/23 05:14:49;;;;;;;22.10;14.90;;;2.40;99.90;;;;;;5012349;28;20498;-68
2022/03/23 05:17:15;;;;;;;25.43;16.10;;;2.40;99.90;;;;;;5022436;28;20186;-63
2022/03/23 05:19:41;;;;;;;27.97;15.97;;;2.40;99.90;;;;;;5030560;28;20175;-66
2022/03/23 05:22:06;;;;;;;26.00;17.07;;;2.40;99.90;;;;;;5025821;28;20200;-63
2022/03/23 05:24:32;;;;;;;24.30;17.30;;;2.40;99.90;;;;;;5013038;28;20191;-64
2022/03/23 05:26:58;;;;;;;23.63;16.53;;;2.50;99.90;;;;;;5014536;28;20188;-67
2022/03/23 05:29:24;;;;;;;25.27;16.13;;;2.50;99.90;;;;;;5012572;28;20411;-64
2022/03/23 05:31:49;;;;;;;26.67;16.40;;;2.50;99.90;;;;;;5017196;28;20434;-59
2022/03/23 05:34:15;;;;;;;31.07;17.87;;;2.50;99.90;;;;;;5033344;28;20253;-59
2022/03/23 05:36:41;;;;;;;29.53;17.87;;;2.50;99.90;;;;;;5029283;28;20656;-62
2022/03/23 05:39:07;;;;;;;20.30;16.13;;;2.50;99.90;;;;;;5011386;28;20586;-60
2022/03/23 05:41:32;;;;;;;25.23;17.10;;;2.50;99.90;;;;;;5013347;28;20470;-60
2022/03/23 05:43:58;;;;;;;23.77;17.20;;;2.60;99.90;;;;;;5035879;28;20176;-64
2022/03/23 05:46:25;;;;;;;29.37;17.90;;;2.60;99.90;;;;;;5037433;28;20178;-64
2022/03/23 05:48:52;;;;;;;34.40;20.10;;;2.60;99.90;;;;;;5016921;28;20180;-63
2022/03/23 05:51:18;;;;;;;26.90;17.03;;;2.60;99.90;;;;;;5015927;28;20439;-60
2022/03/23 05:53:44;;;;;;;32.63;18.50;;;2.60;99.90;;;;;;5032720;28;20469;-59
2022/03/23 05:56:09;;;;;;;34.77;18.73;;;2.60;99.90;;;;;;5037035;28;20178;-59
2022/03/23 05:58:35;;;;;;;24.80;17.80;;;2.60;99.90;;;;;;5022161;28;20243;-63
2022/03/23 06:01:02;;;;;;;31.70;18.20;;;2.60;99.90;;;;;;5016643;28;20185;-63
2022/03/23 06:03:28;;;;;;;30.77;19.10;;;2.70;99.90;;;;;;5016595;28;20705;-59
2022/03/23 06:05:53;;;;;;;28.37;17.67;;;2.70;99.90;;;;;;5016962;28;20411;-63
2022/03/23 06:08:20;;;;;;;32.93;17.23;;;2.70;99.90;;;;;;5028109;28;20745;-60
2022/03/23 06:10:46;;;;;;;33.17;16.97;;;2.70;99.90;;;;;;5034150;28;20180;-63
2022/03/23 06:13:12;;;;;;;28.57;18.17;;;2.80;99.90;;;;;;5034885;28;20430;-64
2022/03/23 06:15:37;;;;;;;30.87;16.77;;;2.80;99.90;;;;;;5036438;28;20285;-59
2022/03/23 06:18:03;;;;;;;35.40;20.83;;;2.80;99.90;;;;;;5026626;28;20200;-60
2022/03/23 06:20:29;;;;;;;26.90;17.53;;;2.90;99.90;;;;;;5015536;28;20640;-63
2022/03/23 06:22:54;;;;;;;28.37;17.80;;;2.90;99.90;;;;;;5019578;28;20215;-59
2022/03/23 06:25:20;;;;;;;31.40;19.50;;;3.00;99.90;;;;;;5016466;28;20247;-63
2022/03/23 06:27:45;;;;;;;28.80;18.70;;;3.00;99.90;;;;;;5025611;28;20177;-60
2022/03/23 06:30:11;;;;;;;35.00;19.80;;;3.10;99.90;;;;;;5035231;28;20175;-60
2022/03/23 06:32:37;;;;;;;31.03;19.53;;;3.20;99.90;;;;;;5028193;28;20207;-64
2022/03/23 06:35:04;;;;;;;27.47;18.63;;;3.30;99.90;;;;;;5015959;28;20454;-64
2022/03/23 06:37:30;;;;;;;36.20;22.53;;;3.40;99.90;;;;;;5022546;28;20656;-66
2022/03/23 06:39:57;;;;;;;36.17;23.10;;;3.40;99.90;;;;;;5034718;28;20406;-62
2022/03/23 06:42:23;;;;;;;34.73;18.37;;;3.50;99.90;;;;;;5027501;28;20443;-64
2022/03/23 06:44:50;;;;;;;35.60;21.20;;;3.60;99.90;;;;;;5016920;28;20436;-62
2022/03/23 06:47:15;;;;;;;41.63;25.70;;;3.70;99.90;;;;;;5022699;28;20422;-62
2022/03/23 06:49:41;;;;;;;46.00;26.47;;;3.80;99.90;;;;;;5033791;28;20241;-60
2022/03/23 06:52:07;;;;;;;39.63;24.30;;;3.80;99.90;;;;;;5029586;28;20273;-62
2022/03/23 06:54:32;;;;;;;39.70;24.40;;;3.90;99.90;;;;;;5034804;28;20617;-65
2022/03/23 06:56:58;;;;;;;37.80;24.20;;;4.00;99.90;;;;;;5033443;28;20190;-64
2022/03/23 06:59:24;;;;;;;51.60;25.00;;;4.20;99.90;;;;;;5014726;28;20169;-64
2022/03/23 07:01:50;;;;;;;49.83;28.17;;;4.20;99.90;;;;;;5015739;28;20231;-60
2022/03/23 07:04:16;;;;;;;47.67;27.57;;;4.40;99.90;;;;;;5015703;28;20995;-63
2022/03/23 07:06:42;;;;;;;45.70;28.50;;;4.50;99.90;;;;;;5014288;28;20505;-63
2022/03/23 07:11:52;;;;;;;50.33;27.97;;;4.70;99.90;;;;;;5015909;28;21015;-64
2022/03/23 07:14:18;;;;;;;53.37;30.00;;;4.80;99.90;;;;;;5035442;28;20450;-64
2022/03/23 07:16:43;;;;;;;49.50;30.10;;;5.00;99.90;;;;;;5034915;28;20560;-64
2022/03/23 07:19:10;;;;;;;48.63;27.90;;;5.10;99.90;;;;;;5015267;28;20172;-60
2022/03/23 07:21:36;;;;;;;43.00;27.00;;;5.20;99.90;;;;;;5016019;28;20200;-64
2022/03/23 07:24:02;;;;;;;53.73;29.53;;;5.30;99.90;;;;;;5032186;28;20422;-63
2022/03/23 07:26:28;;;;;;;48.63;27.83;;;5.40;99.90;;;;;;5035306;28;20171;-60
2022/03/23 07:28:53;;;;;;;59.93;31.10;;;5.60;99.90;;;;;;5031028;28;20414;-64
2022/03/23 07:31:19;;;;;;;53.07;29.70;;;5.70;99.90;;;;;;5035069;28;20422;-63
2022/03/23 07:33:45;;;;;;;48.83;29.53;;;5.90;99.90;;;;;;5016774;28;20184;-60
2022/03/23 07:36:13;;;;;;;54.47;30.60;;;6.00;99.90;;;;;;5013466;28;20172;-60
2022/03/23 07:38:39;;;;;;;54.30;30.07;;;6.20;99.90;;;;;;5030342;28;20175;-60
2022/03/23 07:41:06;;;;;;;53.40;31.43;;;6.30;99.90;;;;;;5034666;28;20410;-64
2022/03/23 07:43:31;;;;;;;52.67;33.37;;;6.50;99.90;;;;;;5034740;28;20489;-64
2022/03/23 07:45:57;;;;;;;40.13;27.63;;;6.70;99.90;;;;;;5033049;28;20505;-66
2022/03/23 07:48:24;;;;;;;55.57;29.87;;;6.80;99.90;;;;;;5034664;28;20199;-64
2022/03/23 07:50:50;;;;;;;51.03;30.47;;;7.00;99.90;;;;;;5034000;28;20213;-64
2022/03/23 07:53:17;;;;;;;46.73;30.40;;;7.10;99.90;;;;;;5033379;28;20432;-61
2022/03/23 07:55:42;;;;;;;49.90;29.90;;;7.30;99.90;;;;;;5034263;28;20534;-60
2022/03/23 07:58:08;;;;;;;42.13;26.37;;;7.50;99.90;;;;;;5030082;28;20514;-68
2022/03/23 08:00:34;;;;;;;46.13;29.23;;;7.70;99.90;;;;;;5025678;28;20173;-62
2022/03/23 08:03:00;;;;;;;45.70;26.90;;;7.80;99.90;;;;;;5031688;28;20219;-67
2022/03/23 08:05:26;;;;;;;46.13;29.83;;;8.00;99.90;;;;;;5034287;28;20394;-65
2022/03/23 08:07:52;;;;;;;41.90;26.93;;;8.20;99.90;;;;;;5033504;28;20168;-62
2022/03/23 08:10:18;;;;;;;46.23;29.50;;;8.40;99.90;;;;;;5012548;28;20411;-62
2022/03/23 08:12:43;;;;;;;48.67;29.07;;;8.50;99.90;;;;;;5014551;28;20667;-62
2022/03/23 08:15:09;;;;;;;44.27;26.83;;;8.70;99.90;;;;;;5030676;28;20211;-62
2022/03/23 08:17:38;;;;;;;40.37;25.60;;;8.90;99.90;;;;;;5033155;28;20173;-63
2022/03/23 08:22:51;;;;;;;31.40;19.87;;;9.20;99.90;;;;;;5034186;28;20421;-66
2022/03/23 08:25:17;;;;;;;36.20;20.33;;;9.40;99.90;;;;;;5034057;28;20406;-62
2022/03/23 08:27:43;;;;;;;29.77;19.47;;;9.60;99.90;;;;;;5034289;28;20181;-61
2022/03/23 08:30:09;;;;;;;35.23;19.70;;;9.80;99.90;;;;;;5030838;28;20242;-62
2022/03/23 08:32:34;;;;;;;30.40;18.87;;;10.00;99.90;;;;;;5033483;28;20195;-66
2022/03/23 08:35:00;;;;;;;27.60;18.10;;;10.20;99.90;;;;;;5033126;28;20450;-66
2022/03/23 08:37:26;;;;;;;33.03;20.27;;;10.40;99.90;;;;;;5033981;28;20167;-63
2022/03/23 08:39:52;;;;;;;28.67;22.00;;;10.60;99.90;;;;;;5033055;28;20164;-64
2022/03/23 08:42:18;;;;;;;33.00;22.70;;;10.80;99.90;;;;;;5033614;28;20422;-66
2022/03/23 08:44:45;;;;;;;33.93;21.90;;;10.90;99.90;;;;;;5033663;28;20174;-62
2022/03/23 08:47:12;;;;;;;34.00;22.43;;;11.10;99.90;;;;;;5030787;28;20175;-63
2022/03/23 08:49:38;;;;;;;31.77;20.40;;;11.30;99.90;;;;;;5033036;28;20377;-67
2022/03/23 08:52:04;;;;;;;39.27;21.23;;;11.50;99.90;;;;;;5020995;28;20836;-68
2022/03/23 08:54:31;;;;;;;29.20;21.00;;;11.60;99.90;;;;;;5014433;28;20977;-67
2022/03/23 08:56:57;;;;;;;31.63;19.10;;;11.80;99.90;;;;;;5014164;28;20408;-62
2022/03/23 08:59:22;;;;;;;27.93;20.07;;;12.00;99.90;;;;;;5027624;28;20429;-63
2022/03/23 09:01:48;;;;;;;36.10;21.80;;;12.10;99.90;;;;;;5023344;28;20207;-66
2022/03/23 09:04:14;;;;;;;29.13;20.33;;;12.40;99.90;;;;;;5030860;28;20195;-62
2022/03/23 09:06:40;;;;;;;31.40;20.93;;;12.60;99.90;;;;;;5020129;28;20473;-67
2022/03/23 09:09:06;;;;;;;34.50;20.30;;;12.80;99.90;;;;;;5012398;28;20485;-63
2022/03/23 09:11:32;;;;;;;33.50;21.57;;;12.90;99.90;;;;;;5024861;28;20278;-67
2022/03/23 09:13:58;;;;;;;32.47;20.63;;;13.10;99.90;;;;;;5033134;28;20223;-63
2022/03/23 09:16:24;;;;;;;29.10;20.67;;;13.20;99.90;;;;;;5027995;28;20499;-67
2022/03/23 09:18:50;;;;;;;28.53;18.30;;;13.50;99.90;;;;;;5031853;28;20409;-63
2022/03/23 09:21:17;;;;;;;30.70;21.43;;;13.70;99.90;;;;;;5024976;28;20203;-64
2022/03/23 09:23:43;;;;;;;27.70;19.07;;;13.90;99.90;;;;;;5013702;28;20894;-62
2022/03/23 09:26:11;;;;;;;29.03;17.70;;;14.20;99.90;;;;;;5019795;28;20426;-67
2022/03/23 09:28:38;;;;;;;24.13;18.00;;;14.60;99.90;;;;;;5031938;28;20417;-63
2022/03/23 09:31:04;;;;;;;26.47;18.67;;;15.00;99.90;;;;;;5027357;28;20506;-63
2022/03/23 09:33:30;;;;;;;25.23;18.50;;;15.30;99.90;;;;;;5014455;28;20422;-63
2022/03/23 09:35:56;;;;;;;25.93;18.37;;;15.70;99.90;;;;;;5016852;28;20989;-63
2022/03/23 09:38:22;;;;;;;23.23;17.20;;;16.10;99.90;;;;;;5032980;28;20422;-68
2022/03/23 09:40:52;;;;;;;21.77;16.60;;;16.30;99.90;;;;;;5032311;28;20426;-63
2022/03/23 09:43:22;;;;;;;22.73;16.57;;;16.40;99.60;;;;;;5032885;28;20382;-66
2022/03/23 09:45:49;;;;;;;23.30;16.17;;;16.60;97.50;;;;;;5019776;28;20427;-67
2022/03/23 09:48:21;;;;;;;23.03;17.50;;;16.80;94.50;;;;;;5013093;28;20423;-68
2022/03/23 09:50:52;;;;;;;26.37;16.83;;;17.10;94.60;;;;;;5012509;28;20441;-64
2022/03/23 09:53:19;;;;;;;21.40;15.30;;;17.30;94.70;;;;;;5013262;28;20435;-67
2022/03/23 09:55:46;;;;;;;23.10;15.97;;;17.40;94.80;;;;;;5013357;28;20462;-63
2022/03/23 09:58:12;;;;;;;23.93;16.33;;;17.40;91.80;;;;;;5015737;28;20400;-63
2022/03/23 10:00:40;;;;;;;25.93;16.20;;;17.50;89.90;;;;;;5029294;28;20526;-67
2022/03/23 10:03:12;;;;;;;25.83;15.90;;;17.70;85.00;;;;;;5032887;28;20454;-63
2022/03/23 10:06:12;;;;;;;25.00;16.00;;;17.80;76.30;;;;;;5032169;28;20398;-63
2022/03/23 10:09:11;;;;;;;26.17;16.60;;;18.00;70.70;;;;;;5030927;28;20414;-67
2022/03/23 10:12:32;;;;;;;23.63;15.70;;;18.20;65.00;;;;;;5032868;28;20426;-63
2022/03/23 10:15:39;;;;;;;29.33;17.83;;;18.50;64.10;;;;;;5032904;28;20544;-66
2022/03/23 10:18:42;;;;;;;20.70;16.67;;;18.40;61.40;;;;;;5013206;28;20738;-63
2022/03/23 10:21:08;;;;;;;23.80;16.73;;;18.70;54.70;;;;;;5012849;28;20442;-67
2022/03/23 10:23:33;;;;;;;24.50;17.30;;;18.90;53.60;;;;;;5012694;28;20816;-66
2022/03/23 10:26:12;;;;;;;21.93;16.20;;;19.20;49.00;;;;;;5012439;28;20565;-62
2022/03/23 10:28:37;;;;;;;24.37;17.40;;;19.30;47.10;;;;;;5012172;28;20191;-67
2022/03/23 10:31:18;;;;;;;24.20;17.10;;;19.50;43.80;;;;;;5015758;28;20407;-63
2022/03/23 10:33:55;;;;;;;23.83;16.87;;;19.50;37.40;;;;;;5017156;28;20637;-67
2022/03/23 10:36:21;;;;;;;24.73;16.57;;;19.70;34.70;;;;;;5016354;28;20411;-66
2022/03/23 10:38:50;;;;;;;23.93;17.83;;;19.80;31.40;;;;;;5014265;28;20835;-63
2022/03/23 10:41:25;;;;;;;24.70;16.20;;;20.10;34.40;;;;;;5016391;28;20481;-64
2022/03/23 10:43:51;;;;;;;25.00;17.87;;;20.40;33.20;;;;;;5015383;28;20449;-63
2022/03/23 10:46:17;;;;;;;21.83;16.27;;;20.50;27.50;;;;;;5016364;28;20842;-67
2022/03/23 10:49:01;;;;;;;29.17;17.40;;;20.50;26.20;;;;;;5015220;28;20490;-63
2022/03/23 10:51:35;;;;;;;24.90;16.03;;;20.60;21.60;;;;;;5031114;28;20979;-65
2022/03/23 10:54:18;;;;;;;23.80;18.40;;;20.70;20.10;;;;;;5015106;28;20457;-64
2022/03/23 10:56:45;;;;;;;23.80;17.20;;;20.80;21.50;;;;;;5016113;28;20404;-63
2022/03/23 10:59:25;;;;;;;22.80;16.00;;;20.90;20.20;;;;;;5015002;28;20407;-65
2022/03/23 11:01:59;;;;;;;25.03;17.80;;;20.90;19.30;;;;;;5015372;28;20427;-67
2022/03/23 11:04:29;;;;;;;24.30;17.83;;;20.40;18.80;;;;;;5015841;28;20477;-67
2022/03/23 11:06:57;;;;;;;26.20;17.60;;;19.80;18.10;;;;;;5016091;28;20431;-63
2022/03/23 11:18:08;;;;;;;32.90;19.97;;;19.20;18.70;;;;;;5014992;28;20853;-67
2022/03/23 11:20:46;;;;;;;37.43;18.07;;;19.30;18.90;;;;;;5014889;28;20954;-63
2022/03/23 11:23:25;;;;;;;24.27;18.03;;;19.40;18.90;;;;;;5016493;28;20439;-63
2022/03/23 11:25:56;;;;;;;26.50;19.43;;;19.60;19.10;;;;;;5015260;28;20446;-68
2022/03/23 11:28:23;;;;;;;32.47;18.43;;;19.60;23.00;;;;;;5015346;28;20490;-70
2022/03/23 11:30:51;;;;;;;31.80;18.30;;;19.80;22.40;;;;;;5014679;28;20434;-67
2022/03/23 11:33:20;;;;;;;33.00;19.80;;;20.00;21.20;;;;;;5015303;28;20435;-65
2022/03/23 11:35:50;;;;;;;30.70;19.57;;;20.20;23.60;;;;;;5014451;28;20458;-64
2022/03/23 11:38:20;;;;;;;31.43;19.20;;;20.30;22.50;;;;;;5016186;28;20412;-65
2022/03/23 11:40:47;;;;;;;27.93;18.87;;;20.30;22.40;;;;;;5013971;28;20407;-66
2022/03/23 11:43:15;;;;;;;29.67;19.00;;;20.10;19.50;;;;;;5015148;28;20427;-64
2022/03/23 11:45:44;;;;;;;26.70;17.87;;;19.80;18.40;;;;;;5015099;28;20477;-68
2022/03/23 11:58:07;;;;;;;28.23;19.83;;;19.60;18.90;;;;;;5015404;28;20433;-65
2022/03/23 12:00:45;;;;;;;29.30;18.07;;;20.00;19.40;;;;;;5017333;28;20419;-69
2022/03/23 12:03:11;;;;;;;29.17;17.80;;;20.50;20.20;;;;;;5014633;28;20467;-65
2022/03/23 12:05:49;;;;;;;33.43;19.10;;;21.10;21.30;;;;;;5014923;28;20403;-64
2022/03/23 12:08:49;;;;;;;24.87;17.40;;;21.40;24.80;;;;;;5014831;28;20415;-69
2022/03/23 12:11:44;;;;;;;27.07;18.57;;;21.60;18.50;;;;;;5014235;28;20429;-67
2022/03/23 12:14:24;;;;;;;29.70;18.73;;;22.40;18.50;;;;;;5014267;28;20469;-65
2022/03/23 12:16:52;;;;;;;38.87;20.63;;;23.00;20.00;;;;;;5014501;28;20419;-65
2022/03/23 12:19:23;;;;;;;30.00;18.50;;;23.10;17.60;;;;;;5013763;28;20734;-65
2022/03/23 12:22:10;;;;;;;26.23;17.80;;;23.60;17.40;;;;;;5014564;28;20427;-67
2022/03/23 12:24:42;;;;;;;29.37;20.87;;;24.40;16.30;;;;;;5014433;28;20407;-68
2022/03/23 12:27:38;;;;;;;40.90;23.50;;;24.70;19.60;;;;;;5014532;28;20892;-70
2022/03/23 12:30:14;;;;;;;29.80;19.97;;;24.70;21.50;;;;;;5027060;28;20918;-69
2022/03/23 12:32:41;;;;;;;29.73;22.13;;;24.80;16.50;;;;;;5033769;28;20911;-68
2022/03/23 12:35:08;;;;;;;32.87;21.67;;;25.00;19.00;;;;;;5032827;28;20537;-67
2022/03/23 12:37:42;;;;;;;37.67;23.57;;;24.80;18.20;;;;;;5033973;28;20407;-66
2022/03/23 12:40:10;;;;;;;29.07;22.50;;;24.90;15.40;;;;;;5032746;28;20504;-66
2022/03/23 12:42:43;;;;;;;37.00;23.63;;;25.10;17.20;;;;;;5033651;28;20426;-67
2022/03/23 12:45:24;;;;;;;36.40;22.50;;;25.30;18.60;;;;;;5027027;28;20441;-67
2022/03/23 12:47:55;;;;;;;37.33;23.00;;;24.80;19.50;;;;;;5013478;28;20431;-66
2022/03/23 13:02:32;;;;;;;30.30;23.10;;;23.60;21.10;;;;;;5025783;28;20472;-69
2022/03/23 13:04:59;;;;;;;32.63;22.30;;;23.30;22.30;;;;;;5033226;28;20406;-66
2022/03/23 13:07:31;;;;;;;39.27;25.00;;;23.40;22.30;;;;;;5033181;28;20406;-67
2022/03/23 13:10:58;;;;;;;34.50;23.80;;;23.90;22.70;;;;;;5033487;28;20398;-68
2022/03/23 13:13:24;;;;;;;36.37;24.73;;;24.80;20.80;;;;;;5037688;28;20418;-68
2022/03/23 13:15:51;;;;;;;32.57;21.37;;;25.20;21.30;;;;;;5031391;28;20466;-67
2022/03/23 13:18:28;;;;;;;29.97;22.00;;;24.70;16.50;;;;;;5016839;28;20427;-67
2022/03/23 13:20:57;;;;;;;30.80;21.90;;;24.60;15.50;;;;;;5011776;28;20419;-70
2022/03/23 13:23:23;;;;;;;25.03;20.87;;;24.40;13.90;;;;;;5013579;28;20443;-68
2022/03/23 13:26:14;;;;;;;33.70;20.90;;;24.10;13.40;;;;;;5013736;28;20430;-68